createdAt,value
2023-04-03T00:00:56.660Z,10.38
2023-04-03T00:03:24.369Z,10.93
2023-04-03T00:05:51.329Z,10.80
2023-04-03T00:08:18.506Z,10.43
2023-04-03T00:10:45.456Z,11.13
2023-04-03T00:13:13.188Z,9.85
2023-04-03T00:15:41.208Z,9.80
2023-04-03T00:18:08.572Z,10.18
2023-04-03T00:20:36.230Z,9.88
2023-04-03T00:23:03.949Z,9.50
2023-04-03T00:25:31.030Z,9.30
2023-04-03T00:27:58.082Z,9.52
2023-04-03T00:30:25.116Z,9.48
2023-04-03T00:32:53.146Z,10.52
2023-04-03T00:35:22.158Z,10.50
2023-04-03T00:37:51.966Z,10.02
2023-04-03T00:40:20.546Z,8.60
2023-04-03T00:42:49.656Z,9.90
2023-04-03T00:45:28.461Z,9.90
2023-04-03T00:47:57.132Z,10.07
2023-04-03T00:50:24.478Z,10.38
2023-04-03T00:52:52.190Z,9.25
2023-04-03T00:55:19.403Z,10.60
2023-04-03T00:57:47.997Z,10.50
2023-04-03T01:00:19.828Z,11.32
2023-04-03T01:02:46.968Z,10.43
2023-04-03T01:05:17.412Z,9.88
2023-04-03T01:07:46.198Z,10.20
2023-04-03T01:10:16.567Z,9.70
2023-04-03T01:12:46.918Z,9.93
2023-04-03T01:15:21.530Z,10.50
2023-04-03T01:17:57.557Z,9.90
2023-04-03T01:20:37.352Z,9.57
2023-04-03T01:23:10.737Z,9.45
2023-04-03T01:25:47.509Z,9.77
2023-04-03T01:28:18.951Z,10.60
2023-04-03T01:30:52.465Z,9.85
2023-04-03T01:33:19.720Z,9.48
2023-04-03T01:35:48.259Z,9.55
2023-04-03T01:38:16.110Z,9.68
2023-04-03T01:40:43.688Z,10.60
2023-04-03T01:43:11.237Z,10.05
2023-04-03T01:45:38.343Z,10.48
2023-04-03T01:48:06.176Z,10.95
2023-04-03T01:50:34.065Z,10.02
2023-04-03T01:53:01.557Z,9.95
2023-04-03T01:55:28.789Z,9.35
2023-04-03T01:57:56.144Z,9.85
2023-04-03T02:00:23.271Z,10.68
2023-04-03T02:02:51.052Z,10.07
2023-04-03T02:05:18.041Z,10.73
2023-04-03T02:07:45.132Z,10.52
2023-04-03T02:10:12.279Z,11.05
2023-04-03T02:12:39.487Z,10.43
2023-04-03T02:15:07.097Z,10.27
2023-04-03T02:17:37.805Z,10.02
2023-04-03T02:20:05.432Z,10.25
2023-04-03T02:22:34.016Z,11.20
2023-04-03T02:25:01.648Z,9.73
2023-04-03T02:27:28.876Z,11.30
2023-04-03T02:29:55.862Z,10.93
2023-04-03T02:32:22.924Z,10.43
2023-04-03T02:34:50.006Z,10.10
2023-04-03T02:37:17.765Z,9.73
2023-04-03T02:39:46.885Z,9.82
2023-04-03T02:42:14.496Z,9.80
2023-04-03T02:44:41.601Z,11.35
2023-04-03T02:47:10.189Z,10.45
2023-04-03T02:49:37.335Z,10.93
2023-04-03T02:52:04.514Z,12.20
2023-04-03T02:54:31.762Z,11.05
2023-04-03T02:57:02.828Z,10.95
2023-04-03T02:59:29.869Z,10.75
2023-04-03T03:01:57.498Z,11.75
2023-04-03T03:04:24.534Z,11.52
2023-04-03T03:06:51.964Z,12.65
2023-04-03T03:09:19.253Z,11.48
2023-04-03T03:11:46.578Z,11.75
2023-04-03T03:14:13.530Z,12.10
2023-04-03T03:16:40.591Z,11.65
2023-04-03T03:19:07.888Z,12.75
2023-04-03T03:21:35.376Z,12.25
2023-04-03T03:24:02.655Z,11.95
2023-04-03T03:26:30.427Z,12.43
2023-04-03T03:28:57.346Z,12.95
2023-04-03T03:31:24.736Z,11.90
2023-04-03T03:33:51.667Z,12.13
2023-04-03T03:36:19.766Z,12.45
2023-04-03T03:38:46.716Z,13.15
2023-04-03T03:41:13.662Z,13.43
2023-04-03T03:43:42.795Z,12.90
2023-04-03T03:46:09.853Z,12.75
2023-04-03T03:48:36.874Z,12.48
2023-04-03T03:51:04.007Z,15.07
2023-04-03T03:53:35.282Z,14.45
2023-04-03T03:56:06.836Z,14.65
2023-04-03T03:58:36.649Z,15.10
2023-04-03T04:01:06.944Z,15.77
2023-04-03T04:03:38.926Z,16.85
2023-04-03T04:06:07.815Z,15.90
2023-04-03T04:08:35.362Z,15.55
2023-04-03T04:11:04.114Z,17.20
2023-04-03T04:13:31.346Z,16.95
2023-04-03T04:15:59.140Z,16.88
2023-04-03T04:18:26.227Z,18.08
2023-04-03T04:20:53.232Z,17.90
2023-04-03T04:23:20.491Z,19.98
2023-04-03T04:25:50.281Z,20.83
2023-04-03T04:28:18.338Z,20.40
2023-04-03T04:30:47.475Z,20.08
2023-04-03T04:33:16.285Z,16.05
2023-04-03T04:35:45.751Z,15.27
2023-04-03T04:38:12.806Z,16.17
2023-04-03T04:40:39.929Z,14.90
2023-04-03T04:43:07.625Z,14.93
2023-04-03T04:45:35.879Z,13.93
2023-04-03T04:48:03.420Z,12.13
2023-04-03T04:50:30.681Z,13.85
2023-04-03T04:52:57.921Z,12.60
2023-04-03T04:55:25.126Z,13.57
2023-04-03T04:57:52.530Z,13.25
2023-04-03T05:00:21.484Z,12.65
2023-04-03T05:02:48.822Z,12.93
2023-04-03T05:05:16.639Z,12.43
2023-04-03T05:07:43.678Z,12.55
2023-04-03T05:10:11.191Z,14.25
2023-04-03T05:12:39.788Z,12.55
2023-04-03T05:15:07.623Z,12.27
2023-04-03T05:17:35.430Z,13.40
2023-04-03T05:20:05.524Z,12.73
2023-04-03T05:22:32.906Z,12.75
2023-04-03T05:25:06.677Z,13.40
2023-04-03T05:27:33.728Z,11.95
2023-04-03T05:30:01.095Z,11.57
2023-04-03T05:32:30.450Z,12.15
2023-04-03T05:35:12.313Z,13.48
2023-04-03T05:37:41.139Z,13.15
2023-04-03T05:40:09.557Z,12.52
2023-04-03T05:42:39.494Z,12.13
2023-04-03T05:45:07.287Z,12.18
2023-04-03T05:47:34.526Z,11.05
2023-04-03T05:50:01.849Z,13.10
2023-04-03T05:52:34.172Z,12.85
2023-04-03T05:55:01.703Z,12.23
2023-04-03T05:57:31.241Z,13.00
2023-04-03T05:59:58.491Z,13.05
2023-04-03T06:02:27.288Z,13.90
2023-04-03T06:04:54.718Z,13.32
2023-04-03T06:07:24.942Z,14.43
2023-04-03T06:09:52.470Z,12.80
2023-04-03T06:12:19.957Z,12.32
2023-04-03T06:14:47.732Z,12.07
2023-04-03T06:17:17.166Z,13.80
2023-04-03T06:19:44.338Z,11.90
2023-04-03T06:22:12.763Z,12.43
2023-04-03T06:24:40.248Z,13.63
2023-04-03T06:27:07.353Z,12.73
2023-04-03T06:29:34.313Z,11.45
2023-04-03T06:32:01.482Z,11.80
2023-04-03T06:34:28.707Z,9.85
2023-04-03T06:36:55.653Z,11.88
2023-04-03T06:39:23.881Z,11.70
2023-04-03T06:41:52.037Z,11.85
2023-04-03T06:44:26.540Z,11.32
2023-04-03T06:46:55.477Z,11.93
2023-04-03T06:49:22.743Z,12.40
2023-04-03T06:51:49.769Z,12.90
2023-04-03T06:54:16.721Z,12.73
2023-04-03T06:56:43.881Z,13.18
2023-04-03T06:59:13.980Z,11.80
2023-04-03T07:01:41.856Z,11.65
2023-04-03T07:04:09.436Z,14.40
2023-04-03T07:06:36.777Z,13.30
2023-04-03T07:09:04.044Z,13.45
2023-04-03T07:11:31.439Z,12.75
2023-04-03T07:13:58.761Z,15.20
2023-04-03T07:16:25.852Z,12.55
2023-04-03T07:18:52.894Z,13.48
2023-04-03T07:21:19.925Z,14.05
2023-04-03T07:23:46.896Z,11.43
2023-04-03T07:26:13.965Z,11.68
2023-04-03T07:28:42.477Z,13.65
2023-04-03T07:31:14.714Z,15.15
2023-04-03T07:33:42.705Z,13.45
2023-04-03T07:36:11.916Z,13.77
2023-04-03T07:38:38.962Z,13.90
2023-04-03T07:41:06.936Z,12.48
2023-04-03T07:43:35.406Z,12.05
2023-04-03T07:46:02.489Z,12.00
2023-04-03T07:48:29.588Z,11.95
2023-04-03T07:51:01.335Z,12.20
2023-04-03T07:53:28.974Z,14.95
2023-04-03T07:55:58.250Z,14.80
2023-04-03T07:58:25.563Z,14.68
2023-04-03T08:00:53.030Z,14.23
2023-04-03T08:03:20.148Z,14.73
2023-04-03T08:05:49.180Z,13.13
2023-04-03T08:08:21.261Z,13.38
2023-04-03T08:10:53.496Z,15.00
2023-04-03T08:13:21.741Z,15.32
2023-04-03T08:15:48.942Z,14.40
2023-04-03T08:18:17.098Z,15.70
2023-04-03T08:20:44.865Z,14.68
2023-04-03T08:23:12.282Z,13.38
2023-04-03T08:25:43.097Z,16.20
2023-04-03T08:28:11.916Z,15.52
2023-04-03T08:30:43.466Z,16.15
2023-04-03T08:33:11.433Z,15.77
2023-04-03T08:35:42.815Z,15.35
2023-04-03T08:38:11.293Z,14.23
2023-04-03T08:40:38.943Z,14.88
2023-04-03T08:43:41.165Z,12.75
2023-04-03T08:46:13.639Z,13.10
2023-04-03T08:48:44.859Z,13.93
2023-04-03T08:51:16.689Z,15.57
2023-04-03T08:53:57.642Z,15.88
2023-04-03T08:56:26.634Z,15.57
2023-04-03T08:58:59.193Z,14.43
2023-04-03T09:01:33.477Z,14.20
2023-04-03T09:04:02.630Z,14.57
2023-04-03T09:06:34.110Z,15.48
2023-04-03T09:09:13.297Z,13.35
2023-04-03T09:12:17.796Z,16.10
2023-04-03T09:14:57.109Z,16.35
2023-04-03T09:17:36.352Z,14.68
2023-04-03T09:20:36.912Z,15.70
2023-04-03T09:23:27.096Z,14.40
2023-04-03T09:25:59.165Z,15.15
2023-04-03T09:28:26.701Z,16.77
2023-04-03T09:30:55.068Z,16.27
2023-04-03T09:33:23.679Z,16.83
2023-04-03T09:35:52.251Z,15.48
2023-04-03T09:38:22.939Z,14.68
2023-04-03T09:41:03.854Z,14.68
2023-04-03T09:43:32.765Z,14.52
2023-04-03T09:46:25.964Z,13.23
2023-04-03T09:49:08.763Z,13.85
2023-04-03T09:51:37.623Z,13.32
2023-04-03T09:54:27.281Z,12.75
2023-04-03T09:56:57.406Z,12.27
2023-04-03T09:59:24.690Z,12.23
2023-04-03T10:02:03.132Z,11.48
2023-04-03T10:04:40.453Z,11.02
2023-04-03T10:07:38.303Z,11.60
2023-04-03T10:10:21.168Z,11.75
2023-04-03T10:12:49.172Z,12.43
2023-04-03T10:15:22.647Z,12.32
2023-04-03T10:18:06.539Z,12.73
2023-04-03T10:20:48.180Z,12.40
2023-04-03T10:23:34.256Z,12.57
2023-04-03T10:26:13.296Z,11.73
2023-04-03T10:28:53.629Z,11.50
2023-04-03T10:31:29.488Z,11.65
2023-04-03T10:35:02.383Z,12.93
2023-04-03T10:37:56.233Z,10.13
2023-04-03T10:40:53.279Z,10.90
2023-04-03T10:43:37.454Z,10.20
2023-04-03T10:46:22.232Z,10.68
2023-04-03T10:49:13.916Z,10.82
2023-04-03T10:51:48.680Z,10.52
2023-04-03T10:54:27.743Z,10.00
2023-04-03T10:57:11.677Z,11.93
2023-04-03T10:59:48.378Z,9.90
2023-04-03T11:02:30.177Z,10.27
2023-04-03T11:05:06.286Z,9.98
2023-04-03T11:07:43.763Z,13.27
2023-04-03T11:10:25.284Z,9.65
2023-04-03T11:13:13.112Z,10.05
2023-04-03T11:15:41.045Z,8.95
2023-04-03T11:18:15.269Z,9.65
2023-04-03T11:20:49.008Z,9.60
2023-04-03T11:23:30.395Z,9.65
2023-04-03T11:26:10.255Z,9.25
2023-04-03T11:28:38.292Z,8.55
2023-04-03T11:31:10.991Z,9.65
2023-04-03T11:33:43.194Z,8.95
2023-04-03T11:36:34.583Z,9.80
2023-04-03T11:39:17.696Z,9.07
2023-04-03T11:41:44.758Z,10.30
2023-04-03T11:44:35.676Z,10.35
2023-04-03T11:47:03.836Z,9.60
2023-04-03T11:50:03.913Z,10.02
2023-04-03T11:52:43.128Z,10.43
2023-04-03T11:55:23.515Z,10.40
2023-04-03T11:57:59.344Z,11.35
2023-04-03T12:00:47.940Z,10.93
2023-04-03T12:03:27.112Z,10.23
2023-04-03T12:06:06.024Z,9.85
2023-04-03T12:08:45.518Z,10.23
2023-04-03T12:11:12.438Z,9.30
2023-04-03T12:13:43.661Z,9.88
2023-04-03T12:16:29.948Z,10.70
2023-04-03T12:19:17.006Z,10.43
2023-04-03T12:21:49.844Z,10.95
2023-04-03T12:24:16.979Z,11.10
2023-04-03T12:27:02.917Z,9.77
2023-04-03T12:29:36.417Z,11.07
2023-04-03T12:32:09.471Z,9.73
2023-04-03T12:34:58.242Z,9.05
2023-04-03T12:37:56.654Z,9.38
2023-04-03T12:40:38.163Z,10.05
2023-04-03T12:43:40.698Z,8.63
2023-04-03T12:46:12.654Z,8.23
2023-04-03T12:48:45.503Z,8.77
2023-04-03T12:51:39.228Z,8.98
2023-04-03T12:54:17.592Z,8.60
2023-04-03T12:56:44.972Z,6.82
2023-04-03T12:59:27.801Z,8.15
2023-04-03T13:01:57.260Z,7.72
2023-04-03T13:04:24.875Z,6.93
2023-04-03T13:06:52.337Z,7.20
2023-04-03T13:09:31.930Z,6.78
2023-04-03T13:12:10.788Z,6.57
2023-04-03T13:14:38.356Z,7.47
2023-04-03T13:17:13.833Z,7.10
2023-04-03T13:19:42.897Z,7.80
2023-04-03T13:22:28.763Z,7.03
2023-04-03T13:24:58.999Z,8.38
2023-04-03T13:27:26.752Z,7.32
2023-04-03T13:29:58.187Z,7.32
2023-04-03T13:32:29.829Z,7.93
2023-04-03T13:35:00.455Z,8.43
2023-04-03T13:37:34.805Z,7.88
2023-04-03T13:40:07.791Z,8.38
2023-04-03T13:42:37.954Z,8.07
2023-04-03T13:45:20.916Z,9.00
2023-04-03T13:47:50.472Z,7.38
2023-04-03T13:50:22.375Z,9.10
2023-04-03T13:52:55.321Z,8.80
2023-04-03T13:55:27.192Z,8.10
2023-04-03T13:57:58.243Z,8.23
2023-04-03T14:00:40.410Z,9.07
2023-04-03T14:03:35.003Z,8.70
2023-04-03T14:06:02.779Z,8.50
2023-04-03T14:08:42.265Z,8.43
2023-04-03T14:11:17.340Z,8.82
2023-04-03T14:13:46.354Z,8.98
2023-04-03T14:16:19.592Z,10.27
2023-04-03T14:18:47.851Z,12.00
2023-04-03T14:21:17.190Z,10.68
2023-04-03T14:23:44.999Z,11.38
2023-04-03T14:26:18.860Z,10.63
2023-04-03T14:28:47.521Z,10.93
2023-04-03T14:31:16.974Z,11.15
2023-04-03T14:33:44.115Z,10.15
2023-04-03T14:36:16.593Z,9.52
2023-04-03T14:38:45.601Z,10.02
2023-04-03T14:41:17.950Z,8.90
2023-04-03T14:43:46.775Z,8.60
2023-04-03T14:46:15.330Z,22.63
2023-04-03T14:48:43.097Z,11.00
2023-04-03T14:51:13.426Z,10.32
2023-04-03T14:53:41.917Z,10.15
2023-04-03T14:56:29.345Z,9.65
2023-04-03T14:59:03.358Z,10.07
2023-04-03T15:01:31.654Z,9.75
2023-04-03T15:03:58.820Z,9.35
2023-04-03T15:06:26.527Z,9.40
2023-04-03T15:08:53.552Z,9.95
2023-04-03T15:11:21.155Z,9.95
2023-04-03T15:13:48.400Z,10.57
2023-04-03T15:16:20.662Z,11.40
2023-04-03T15:18:48.436Z,11.43
2023-04-03T15:21:15.433Z,11.25
2023-04-03T15:23:43.760Z,10.18
2023-04-03T15:26:11.231Z,11.13
2023-04-03T15:28:43.254Z,10.23
2023-04-03T15:31:10.604Z,11.10
2023-04-03T15:33:38.192Z,10.05
2023-04-03T15:36:22.603Z,10.10
2023-04-03T15:38:56.190Z,10.30
2023-04-03T15:41:23.291Z,10.27
2023-04-03T15:43:50.440Z,10.02
2023-04-03T15:46:17.533Z,10.43
2023-04-03T15:48:45.818Z,10.20
2023-04-03T15:51:12.806Z,9.65
2023-04-03T15:53:39.825Z,10.10
2023-04-03T15:56:06.886Z,10.05
2023-04-03T15:58:34.089Z,10.20
2023-04-03T16:01:01.632Z,9.48
2023-04-03T16:03:29.139Z,9.63
2023-04-03T16:05:56.543Z,11.30
2023-04-03T16:08:23.787Z,11.10
2023-04-03T16:10:50.857Z,10.27
2023-04-03T16:13:17.895Z,10.48
2023-04-03T16:15:44.947Z,10.63
2023-04-03T16:18:12.077Z,9.27
2023-04-03T16:20:39.338Z,8.95
2023-04-03T16:23:06.676Z,9.20
2023-04-03T16:25:34.136Z,10.35
2023-04-03T16:28:01.154Z,9.70
2023-04-03T16:30:29.226Z,9.60
2023-04-03T16:32:57.519Z,9.90
2023-04-03T16:35:24.672Z,8.55
2023-04-03T16:37:51.806Z,9.38
2023-04-03T16:40:18.990Z,9.18
2023-04-03T16:42:47.045Z,9.23
2023-04-03T16:45:14.068Z,8.65
2023-04-03T16:47:41.240Z,8.13
2023-04-03T16:50:08.905Z,8.52
2023-04-03T16:52:36.314Z,9.90
2023-04-03T16:55:03.481Z,9.40
2023-04-03T16:57:30.659Z,8.60
2023-04-03T16:59:57.724Z,9.40
2023-04-03T17:02:28.763Z,9.75
2023-04-03T17:04:55.813Z,10.38
2023-04-03T17:07:24.791Z,10.68
2023-04-03T17:09:52.705Z,10.38
2023-04-03T17:12:19.744Z,11.20
2023-04-03T17:14:47.913Z,11.35
2023-04-03T17:17:16.021Z,11.52
2023-04-03T17:19:44.129Z,11.15
2023-04-03T17:22:11.690Z,11.45
2023-04-03T17:24:38.721Z,12.30
2023-04-03T17:27:05.736Z,13.20
2023-04-03T17:29:32.770Z,12.27
2023-04-03T17:31:59.841Z,12.40
2023-04-03T17:34:26.829Z,12.93
2023-04-03T17:36:53.873Z,12.20
2023-04-03T17:39:20.994Z,11.93
2023-04-03T17:41:49.411Z,12.68
2023-04-03T17:44:16.474Z,13.52
2023-04-03T17:46:43.716Z,14.23
2023-04-03T17:49:14.913Z,13.40
2023-04-03T17:51:42.526Z,12.60
2023-04-03T17:54:09.636Z,13.70
2023-04-03T17:56:36.727Z,12.30
2023-04-03T17:59:03.750Z,12.65
2023-04-03T18:01:33.945Z,11.70
2023-04-03T18:04:03.383Z,11.27
2023-04-03T18:06:38.813Z,10.95
2023-04-03T18:09:10.043Z,11.23
2023-04-03T18:11:37.449Z,11.02
2023-04-03T18:14:07.833Z,11.43
2023-04-03T18:16:35.801Z,12.60
2023-04-03T18:19:21.078Z,12.88
2023-04-03T18:21:48.849Z,12.73
2023-04-03T18:24:18.738Z,14.68
2023-04-03T18:26:50.908Z,13.68
2023-04-03T18:29:19.422Z,15.23
2023-04-03T18:31:49.791Z,15.73
2023-04-03T18:34:16.940Z,16.20
2023-04-03T18:36:44.039Z,16.75
2023-04-03T18:39:11.391Z,17.30
2023-04-03T18:41:38.479Z,16.48
2023-04-03T18:44:08.341Z,17.88
2023-04-03T18:46:35.543Z,19.33
2023-04-03T18:49:03.277Z,17.45
2023-04-03T18:51:30.470Z,18.02
2023-04-03T18:53:57.456Z,17.35
2023-04-03T18:56:24.498Z,19.85
2023-04-03T18:58:51.579Z,18.13
2023-04-03T19:01:19.161Z,19.05
2023-04-03T19:03:46.676Z,18.58
2023-04-03T19:06:13.802Z,18.10
2023-04-03T19:08:41.261Z,19.48
2023-04-03T19:11:08.343Z,19.92
2023-04-03T19:13:36.816Z,18.77
2023-04-03T19:16:06.783Z,19.92
2023-04-03T19:18:33.858Z,19.02
2023-04-03T19:21:00.984Z,19.48
2023-04-03T19:23:28.050Z,18.33
2023-04-03T19:26:06.214Z,19.90
2023-04-03T19:28:34.026Z,20.30
2023-04-03T19:31:02.022Z,18.75
2023-04-03T19:33:29.072Z,18.30
2023-04-03T19:35:56.595Z,18.52
2023-04-03T19:38:23.634Z,17.70
2023-04-03T19:40:50.682Z,19.13
2023-04-03T19:43:17.732Z,18.75
2023-04-03T19:45:46.551Z,19.20
2023-04-03T19:48:13.897Z,18.00
2023-04-03T19:50:41.516Z,19.02
2023-04-03T19:53:14.528Z,18.85
2023-04-03T19:55:41.735Z,17.25
2023-04-03T19:58:08.788Z,17.23
2023-04-03T20:00:35.792Z,17.88
2023-04-03T20:03:02.942Z,16.85
2023-04-03T20:05:29.958Z,18.23
2023-04-03T20:07:56.954Z,16.88
2023-04-03T20:10:24.237Z,19.25
2023-04-03T20:12:51.352Z,17.33
2023-04-03T20:15:18.457Z,17.42
2023-04-03T20:17:45.551Z,18.58
2023-04-03T20:20:13.542Z,17.88
2023-04-03T20:22:41.283Z,18.00
2023-04-03T20:25:12.289Z,17.67
2023-04-03T20:27:40.364Z,17.48
2023-04-03T20:30:13.224Z,18.38
2023-04-03T20:32:40.215Z,17.25
2023-04-03T20:35:08.084Z,16.02
2023-04-03T20:37:36.187Z,18.30
2023-04-03T20:40:03.977Z,16.65
2023-04-03T20:42:31.042Z,16.75
2023-04-03T20:44:58.413Z,17.42
2023-04-03T20:47:25.551Z,18.15
2023-04-03T20:49:53.841Z,17.05
2023-04-03T20:52:20.948Z,16.80
2023-04-03T20:54:48.066Z,16.08
2023-04-03T20:57:15.530Z,16.88
2023-04-03T20:59:42.767Z,17.75
2023-04-03T21:02:11.441Z,18.38
2023-04-03T21:04:53.060Z,18.58
2023-04-03T21:07:58.767Z,16.90
2023-04-03T21:11:03.251Z,15.73
2023-04-03T21:14:07.613Z,15.60
2023-04-03T21:16:37.435Z,15.82
2023-04-03T21:19:10.308Z,15.57
2023-04-03T21:21:37.578Z,15.38
2023-04-03T21:24:07.214Z,15.27
2023-04-03T21:26:34.543Z,14.27
2023-04-03T21:29:01.873Z,14.75
2023-04-03T21:31:48.690Z,16.27
2023-04-03T21:34:16.311Z,15.93
2023-04-03T21:36:44.743Z,17.70
2023-04-03T21:39:12.363Z,18.20
2023-04-03T21:41:39.347Z,18.20
2023-04-03T21:44:06.383Z,17.65
2023-04-03T21:46:33.446Z,17.48
2023-04-03T21:49:01.502Z,18.20
2023-04-03T21:51:29.046Z,18.92
2023-04-03T21:53:56.521Z,17.17
2023-04-03T21:56:24.485Z,16.13
2023-04-03T21:58:52.295Z,17.30
2023-04-03T22:01:20.760Z,18.20
2023-04-03T22:03:47.851Z,18.20
2023-04-03T22:06:16.603Z,16.33
2023-04-03T22:08:44.104Z,16.35
2023-04-03T22:11:14.112Z,17.80
2023-04-03T22:13:42.485Z,17.45
2023-04-03T22:16:12.212Z,17.70
2023-04-03T22:18:39.239Z,15.95
2023-04-03T22:21:09.440Z,17.40
2023-04-03T22:23:37.762Z,16.95
2023-04-03T22:26:07.551Z,17.58
2023-04-03T22:28:40.161Z,17.70
2023-04-03T22:31:07.942Z,18.67
2023-04-03T22:33:39.126Z,19.13
2023-04-03T22:36:08.086Z,20.25
2023-04-03T22:38:35.522Z,20.17
2023-04-03T22:41:04.686Z,18.63
2023-04-03T22:43:33.726Z,19.35
2023-04-03T22:46:02.811Z,19.13
2023-04-03T22:48:31.021Z,18.75
2023-04-03T22:51:00.059Z,19.52
2023-04-03T22:53:33.250Z,18.13
2023-04-03T22:56:02.137Z,21.60
2023-04-03T22:58:29.665Z,20.50
2023-04-03T23:01:11.025Z,21.55
2023-04-03T23:03:39.842Z,19.50
2023-04-03T23:06:08.194Z,20.83
2023-04-03T23:08:38.095Z,20.75
2023-04-03T23:11:07.407Z,23.35
2023-04-03T23:13:34.516Z,21.58
2023-04-03T23:16:03.108Z,23.00
2023-04-03T23:18:31.847Z,22.38
2023-04-03T23:20:59.640Z,22.63
2023-04-03T23:23:27.242Z,21.88
2023-04-03T23:25:55.274Z,20.35
2023-04-03T23:28:22.933Z,21.08
2023-04-03T23:30:51.194Z,22.02
2023-04-03T23:33:18.159Z,19.02
2023-04-03T23:35:51.226Z,20.85
2023-04-03T23:38:18.717Z,19.48
2023-04-03T23:40:47.284Z,19.50
2023-04-03T23:43:14.438Z,18.08
2023-04-03T23:45:41.942Z,21.10
2023-04-03T23:48:09.047Z,21.13
2023-04-03T23:50:37.368Z,21.02
2023-04-03T23:53:04.550Z,18.23
2023-04-03T23:55:31.812Z,19.40
2023-04-03T23:57:58.769Z,19.00
